sensor_id;sensor_type;location;lat;lon;timestamp;P1;durP1;ratioP1;P2;durP2;ratioP2
21315;SDS011;10817;55.820;13.030;2022-11-15T00:00:35;65.15;;;33.00;;
21315;SDS011;10817;55.820;13.030;2022-11-15T00:03:21;65.53;;;31.73;;
21315;SDS011;10817;55.820;13.030;2022-11-15T00:06:09;65.15;;;32.88;;
21315;SDS011;10817;55.820;13.030;2022-11-15T00:08:54;65.75;;;32.42;;
21315;SDS011;10817;55.820;13.030;2022-11-15T00:11:42;64.70;;;31.17;;
21315;SDS011;10817;55.820;13.030;2022-11-15T00:14:28;63.30;;;31.20;;
21315;SDS011;10817;55.820;13.030;2022-11-15T00:17:13;64.28;;;31.92;;
21315;SDS011;10817;55.820;13.030;2022-11-15T00:19:59;64.13;;;33.22;;
21315;SDS011;10817;55.820;13.030;2022-11-15T00:22:45;60.38;;;30.80;;
21315;SDS011;10817;55.820;13.030;2022-11-15T00:25:31;65.10;;;32.40;;
21315;SDS011;10817;55.820;13.030;2022-11-15T00:28:17;65.70;;;31.92;;
21315;SDS011;10817;55.820;13.030;2022-11-15T00:31:02;63.65;;;31.63;;
21315;SDS011;10817;55.820;13.030;2022-11-15T00:33:49;61.75;;;31.38;;
21315;SDS011;10817;55.820;13.030;2022-11-15T00:36:34;57.20;;;29.63;;
21315;SDS011;10817;55.820;13.030;2022-11-15T00:39:21;54.88;;;28.48;;
21315;SDS011;10817;55.820;13.030;2022-11-15T00:42:07;55.03;;;29.23;;
21315;SDS011;10817;55.820;13.030;2022-11-15T00:44:52;59.65;;;30.13;;
21315;SDS011;10817;55.820;13.030;2022-11-15T00:47:37;59.45;;;29.65;;
21315;SDS011;10817;55.820;13.030;2022-11-15T00:50:22;58.25;;;29.35;;
21315;SDS011;10817;55.820;13.030;2022-11-15T00:53:08;61.38;;;29.73;;
21315;SDS011;10817;55.820;13.030;2022-11-15T00:55:55;58.08;;;29.27;;
21315;SDS011;10817;55.820;13.030;2022-11-15T00:58:40;57.55;;;30.10;;
21315;SDS011;10817;55.820;13.030;2022-11-15T01:01:25;58.65;;;30.92;;
21315;SDS011;10817;55.820;13.030;2022-11-15T01:04:11;66.05;;;30.58;;
21315;SDS011;10817;55.820;13.030;2022-11-15T01:06:56;59.63;;;28.98;;
21315;SDS011;10817;55.820;13.030;2022-11-15T01:09:42;58.28;;;28.25;;
21315;SDS011;10817;55.820;13.030;2022-11-15T01:12:29;56.88;;;28.63;;
21315;SDS011;10817;55.820;13.030;2022-11-15T01:15:14;54.70;;;29.58;;
21315;SDS011;10817;55.820;13.030;2022-11-15T01:18:00;56.03;;;27.85;;
21315;SDS011;10817;55.820;13.030;2022-11-15T01:20:45;61.97;;;29.77;;
21315;SDS011;10817;55.820;13.030;2022-11-15T01:23:31;50.15;;;27.30;;
21315;SDS011;10817;55.820;13.030;2022-11-15T01:26:16;60.83;;;29.33;;
21315;SDS011;10817;55.820;13.030;2022-11-15T01:29:03;53.65;;;28.65;;
21315;SDS011;10817;55.820;13.030;2022-11-15T01:31:49;57.97;;;29.08;;
21315;SDS011;10817;55.820;13.030;2022-11-15T01:34:34;56.53;;;28.33;;
21315;SDS011;10817;55.820;13.030;2022-11-15T01:37:20;54.85;;;28.90;;
21315;SDS011;10817;55.820;13.030;2022-11-15T01:40:06;59.17;;;28.50;;
21315;SDS011;10817;55.820;13.030;2022-11-15T01:42:52;51.08;;;27.15;;
21315;SDS011;10817;55.820;13.030;2022-11-15T01:45:39;56.67;;;28.48;;
21315;SDS011;10817;55.820;13.030;2022-11-15T01:48:25;56.92;;;29.60;;
21315;SDS011;10817;55.820;13.030;2022-11-15T01:51:16;59.15;;;28.98;;
21315;SDS011;10817;55.820;13.030;2022-11-15T01:54:04;53.75;;;27.85;;
21315;SDS011;10817;55.820;13.030;2022-11-15T01:56:56;52.90;;;28.85;;
21315;SDS011;10817;55.820;13.030;2022-11-15T01:59:45;56.85;;;28.52;;
21315;SDS011;10817;55.820;13.030;2022-11-15T02:02:33;54.55;;;27.92;;
21315;SDS011;10817;55.820;13.030;2022-11-15T02:05:21;51.85;;;26.88;;
21315;SDS011;10817;55.820;13.030;2022-11-15T02:08:08;50.35;;;27.42;;
21315;SDS011;10817;55.820;13.030;2022-11-15T02:11:04;54.90;;;28.05;;
21315;SDS011;10817;55.820;13.030;2022-11-15T02:13:51;51.72;;;27.40;;
21315;SDS011;10817;55.820;13.030;2022-11-15T02:16:39;53.30;;;28.58;;
21315;SDS011;10817;55.820;13.030;2022-11-15T02:19:40;53.65;;;28.13;;
21315;SDS011;10817;55.820;13.030;2022-11-15T02:22:44;60.75;;;29.50;;
21315;SDS011;10817;55.820;13.030;2022-11-15T02:25:46;56.35;;;29.58;;
21315;SDS011;10817;55.820;13.030;2022-11-15T02:28:44;59.22;;;28.60;;
21315;SDS011;10817;55.820;13.030;2022-11-15T02:31:39;58.13;;;29.13;;
21315;SDS011;10817;55.820;13.030;2022-11-15T02:34:33;56.95;;;28.05;;
21315;SDS011;10817;55.820;13.030;2022-11-15T02:37:25;53.15;;;28.30;;
21315;SDS011;10817;55.820;13.030;2022-11-15T02:40:17;50.90;;;27.63;;
21315;SDS011;10817;55.820;13.030;2022-11-15T02:43:13;47.05;;;27.00;;
21315;SDS011;10817;55.820;13.030;2022-11-15T02:46:26;57.70;;;30.00;;
21315;SDS011;10817;55.820;13.030;2022-11-15T02:49:36;54.78;;;27.95;;
21315;SDS011;10817;55.820;13.030;2022-11-15T02:52:24;59.58;;;29.38;;
21315;SDS011;10817;55.820;13.030;2022-11-15T02:55:25;50.97;;;27.77;;
21315;SDS011;10817;55.820;13.030;2022-11-15T02:58:19;48.97;;;25.92;;
21315;SDS011;10817;55.820;13.030;2022-11-15T03:01:19;46.70;;;25.85;;
21315;SDS011;10817;55.820;13.030;2022-11-15T03:04:17;48.28;;;26.80;;
21315;SDS011;10817;55.820;13.030;2022-11-15T03:07:13;47.55;;;26.38;;
21315;SDS011;10817;55.820;13.030;2022-11-15T03:10:05;50.38;;;27.27;;
21315;SDS011;10817;55.820;13.030;2022-11-15T03:12:55;48.40;;;27.15;;
21315;SDS011;10817;55.820;13.030;2022-11-15T03:15:43;49.08;;;27.58;;
21315;SDS011;10817;55.820;13.030;2022-11-15T03:18:37;49.65;;;27.60;;
21315;SDS011;10817;55.820;13.030;2022-11-15T03:21:26;50.97;;;27.95;;
21315;SDS011;10817;55.820;13.030;2022-11-15T03:24:16;51.08;;;28.90;;
21315;SDS011;10817;55.820;13.030;2022-11-15T03:27:05;54.40;;;29.38;;
21315;SDS011;10817;55.820;13.030;2022-11-15T03:29:57;53.47;;;29.55;;
21315;SDS011;10817;55.820;13.030;2022-11-15T03:32:46;54.60;;;29.02;;
21315;SDS011;10817;55.820;13.030;2022-11-15T03:35:35;53.67;;;27.92;;
21315;SDS011;10817;55.820;13.030;2022-11-15T03:38:24;58.72;;;29.02;;
21315;SDS011;10817;55.820;13.030;2022-11-15T03:41:14;57.25;;;28.83;;
21315;SDS011;10817;55.820;13.030;2022-11-15T03:44:08;54.67;;;28.67;;
21315;SDS011;10817;55.820;13.030;2022-11-15T03:47:01;51.72;;;28.38;;
21315;SDS011;10817;55.820;13.030;2022-11-15T03:49:52;57.40;;;29.00;;
21315;SDS011;10817;55.820;13.030;2022-11-15T03:52:41;59.40;;;29.33;;
21315;SDS011;10817;55.820;13.030;2022-11-15T03:55:31;50.22;;;28.20;;
21315;SDS011;10817;55.820;13.030;2022-11-15T03:58:18;59.50;;;30.25;;
21315;SDS011;10817;55.820;13.030;2022-11-15T04:01:04;57.15;;;29.50;;
21315;SDS011;10817;55.820;13.030;2022-11-15T04:03:50;63.85;;;31.75;;
21315;SDS011;10817;55.820;13.030;2022-11-15T04:06:35;59.75;;;30.30;;
21315;SDS011;10817;55.820;13.030;2022-11-15T04:09:20;57.78;;;30.35;;
21315;SDS011;10817;55.820;13.030;2022-11-15T04:12:06;62.85;;;31.75;;
21315;SDS011;10817;55.820;13.030;2022-11-15T04:14:52;56.72;;;29.80;;
21315;SDS011;10817;55.820;13.030;2022-11-15T04:17:52;56.38;;;29.23;;
21315;SDS011;10817;55.820;13.030;2022-11-15T04:20:39;58.70;;;32.00;;
21315;SDS011;10817;55.820;13.030;2022-11-15T04:23:42;57.20;;;30.50;;
21315;SDS011;10817;55.820;13.030;2022-11-15T04:26:46;65.07;;;32.45;;
21315;SDS011;10817;55.820;13.030;2022-11-15T04:29:31;59.70;;;30.80;;
21315;SDS011;10817;55.820;13.030;2022-11-15T04:32:21;58.97;;;29.60;;
21315;SDS011;10817;55.820;13.030;2022-11-15T04:35:07;57.92;;;30.52;;
21315;SDS011;10817;55.820;13.030;2022-11-15T04:37:53;55.50;;;29.52;;
21315;SDS011;10817;55.820;13.030;2022-11-15T04:40:38;57.58;;;29.38;;
21315;SDS011;10817;55.820;13.030;2022-11-15T04:43:24;58.72;;;30.52;;
21315;SDS011;10817;55.820;13.030;2022-11-15T04:46:10;59.22;;;30.63;;
21315;SDS011;10817;55.820;13.030;2022-11-15T04:48:56;60.63;;;31.02;;
21315;SDS011;10817;55.820;13.030;2022-11-15T04:51:41;59.28;;;29.45;;
21315;SDS011;10817;55.820;13.030;2022-11-15T04:54:27;56.42;;;29.60;;
21315;SDS011;10817;55.820;13.030;2022-11-15T04:57:12;54.88;;;30.60;;
21315;SDS011;10817;55.820;13.030;2022-11-15T04:59:59;62.00;;;31.60;;
21315;SDS011;10817;55.820;13.030;2022-11-15T05:02:44;57.53;;;29.83;;
21315;SDS011;10817;55.820;13.030;2022-11-15T05:05:49;66.10;;;32.47;;
21315;SDS011;10817;55.820;13.030;2022-11-15T05:08:34;62.65;;;31.63;;
21315;SDS011;10817;55.820;13.030;2022-11-15T05:11:19;64.32;;;32.22;;
21315;SDS011;10817;55.820;13.030;2022-11-15T05:14:05;66.13;;;33.63;;
21315;SDS011;10817;55.820;13.030;2022-11-15T05:16:50;60.53;;;31.95;;
21315;SDS011;10817;55.820;13.030;2022-11-15T05:19:36;62.17;;;32.92;;
21315;SDS011;10817;55.820;13.030;2022-11-15T05:22:23;59.40;;;32.60;;
21315;SDS011;10817;55.820;13.030;2022-11-15T05:25:09;60.45;;;32.13;;
21315;SDS011;10817;55.820;13.030;2022-11-15T05:27:55;60.88;;;32.33;;
21315;SDS011;10817;55.820;13.030;2022-11-15T05:30:41;58.60;;;31.20;;
21315;SDS011;10817;55.820;13.030;2022-11-15T05:33:27;58.78;;;29.73;;
21315;SDS011;10817;55.820;13.030;2022-11-15T05:36:13;63.22;;;32.53;;
21315;SDS011;10817;55.820;13.030;2022-11-15T05:39:05;58.25;;;29.38;;
21315;SDS011;10817;55.820;13.030;2022-11-15T05:41:52;58.97;;;30.38;;
21315;SDS011;10817;55.820;13.030;2022-11-15T05:44:40;64.93;;;33.83;;
21315;SDS011;10817;55.820;13.030;2022-11-15T05:47:29;61.50;;;31.73;;
21315;SDS011;10817;55.820;13.030;2022-11-15T05:50:16;57.97;;;31.13;;
21315;SDS011;10817;55.820;13.030;2022-11-15T05:53:03;61.60;;;30.92;;
21315;SDS011;10817;55.820;13.030;2022-11-15T05:55:50;63.70;;;30.75;;
21315;SDS011;10817;55.820;13.030;2022-11-15T05:58:36;59.35;;;31.50;;
21315;SDS011;10817;55.820;13.030;2022-11-15T06:01:22;62.70;;;31.98;;
21315;SDS011;10817;55.820;13.030;2022-11-15T06:04:10;59.28;;;31.10;;
21315;SDS011;10817;55.820;13.030;2022-11-15T06:06:55;64.78;;;32.20;;
21315;SDS011;10817;55.820;13.030;2022-11-15T06:09:42;56.78;;;31.33;;
21315;SDS011;10817;55.820;13.030;2022-11-15T06:12:29;59.67;;;32.75;;
21315;SDS011;10817;55.820;13.030;2022-11-15T06:15:14;58.92;;;30.90;;
21315;SDS011;10817;55.820;13.030;2022-11-15T06:18:00;55.00;;;30.10;;
21315;SDS011;10817;55.820;13.030;2022-11-15T06:20:45;61.10;;;31.05;;
21315;SDS011;10817;55.820;13.030;2022-11-15T06:23:31;59.70;;;30.80;;
21315;SDS011;10817;55.820;13.030;2022-11-15T06:26:17;62.80;;;32.00;;
21315;SDS011;10817;55.820;13.030;2022-11-15T06:29:04;59.20;;;30.58;;
21315;SDS011;10817;55.820;13.030;2022-11-15T06:31:51;63.10;;;30.60;;
21315;SDS011;10817;55.820;13.030;2022-11-15T06:34:36;62.67;;;32.55;;
21315;SDS011;10817;55.820;13.030;2022-11-15T06:37:22;60.92;;;32.35;;
21315;SDS011;10817;55.820;13.030;2022-11-15T06:40:08;58.45;;;31.27;;
21315;SDS011;10817;55.820;13.030;2022-11-15T06:42:56;58.55;;;30.90;;
21315;SDS011;10817;55.820;13.030;2022-11-15T06:45:44;60.17;;;32.03;;
21315;SDS011;10817;55.820;13.030;2022-11-15T06:48:30;62.15;;;30.90;;
21315;SDS011;10817;55.820;13.030;2022-11-15T06:51:16;59.05;;;31.13;;
21315;SDS011;10817;55.820;13.030;2022-11-15T06:54:01;57.97;;;30.23;;
21315;SDS011;10817;55.820;13.030;2022-11-15T06:56:47;57.47;;;29.98;;
21315;SDS011;10817;55.820;13.030;2022-11-15T06:59:32;56.88;;;29.67;;
21315;SDS011;10817;55.820;13.030;2022-11-15T07:02:19;56.80;;;29.80;;
21315;SDS011;10817;55.820;13.030;2022-11-15T07:05:05;58.53;;;30.83;;
21315;SDS011;10817;55.820;13.030;2022-11-15T07:07:52;63.60;;;31.23;;
21315;SDS011;10817;55.820;13.030;2022-11-15T07:10:38;63.10;;;31.02;;
21315;SDS011;10817;55.820;13.030;2022-11-15T07:13:24;53.40;;;28.98;;
21315;SDS011;10817;55.820;13.030;2022-11-15T07:16:10;58.17;;;30.83;;
21315;SDS011;10817;55.820;13.030;2022-11-15T07:18:57;58.97;;;29.13;;
21315;SDS011;10817;55.820;13.030;2022-11-15T07:21:43;59.45;;;30.33;;
21315;SDS011;10817;55.820;13.030;2022-11-15T07:24:28;55.35;;;29.00;;
21315;SDS011;10817;55.820;13.030;2022-11-15T07:27:13;61.47;;;30.60;;
21315;SDS011;10817;55.820;13.030;2022-11-15T07:29:59;53.55;;;29.35;;
21315;SDS011;10817;55.820;13.030;2022-11-15T07:32:44;52.72;;;29.38;;
21315;SDS011;10817;55.820;13.030;2022-11-15T07:35:32;56.17;;;29.63;;
21315;SDS011;10817;55.820;13.030;2022-11-15T07:38:17;53.20;;;29.02;;
21315;SDS011;10817;55.820;13.030;2022-11-15T07:41:04;54.92;;;29.00;;
21315;SDS011;10817;55.820;13.030;2022-11-15T07:43:51;58.05;;;29.55;;
21315;SDS011;10817;55.820;13.030;2022-11-15T07:46:37;55.55;;;29.25;;
21315;SDS011;10817;55.820;13.030;2022-11-15T07:49:23;55.33;;;28.40;;
21315;SDS011;10817;55.820;13.030;2022-11-15T07:52:09;52.78;;;29.40;;
21315;SDS011;10817;55.820;13.030;2022-11-15T07:54:55;56.97;;;29.13;;
21315;SDS011;10817;55.820;13.030;2022-11-15T07:57:41;60.05;;;30.45;;
21315;SDS011;10817;55.820;13.030;2022-11-15T08:00:27;52.97;;;29.83;;
21315;SDS011;10817;55.820;13.030;2022-11-15T08:03:13;54.47;;;29.13;;
21315;SDS011;10817;55.820;13.030;2022-11-15T08:06:00;55.35;;;29.35;;
21315;SDS011;10817;55.820;13.030;2022-11-15T08:08:47;62.40;;;31.50;;
21315;SDS011;10817;55.820;13.030;2022-11-15T08:11:33;56.78;;;31.30;;
21315;SDS011;10817;55.820;13.030;2022-11-15T08:14:18;57.50;;;31.20;;
21315;SDS011;10817;55.820;13.030;2022-11-15T08:17:05;56.83;;;30.63;;
21315;SDS011;10817;55.820;13.030;2022-11-15T08:19:50;57.85;;;30.90;;
21315;SDS011;10817;55.820;13.030;2022-11-15T08:22:36;56.30;;;29.42;;
21315;SDS011;10817;55.820;13.030;2022-11-15T08:25:23;58.80;;;30.83;;
21315;SDS011;10817;55.820;13.030;2022-11-15T08:28:10;60.83;;;30.73;;
21315;SDS011;10817;55.820;13.030;2022-11-15T08:30:55;58.15;;;30.40;;
21315;SDS011;10817;55.820;13.030;2022-11-15T08:33:41;62.80;;;32.00;;
21315;SDS011;10817;55.820;13.030;2022-11-15T08:36:26;56.63;;;31.02;;
21315;SDS011;10817;55.820;13.030;2022-11-15T08:39:11;61.10;;;32.75;;
21315;SDS011;10817;55.820;13.030;2022-11-15T08:41:59;58.92;;;31.48;;
21315;SDS011;10817;55.820;13.030;2022-11-15T08:44:44;57.90;;;29.50;;
21315;SDS011;10817;55.820;13.030;2022-11-15T08:47:29;55.55;;;31.80;;
21315;SDS011;10817;55.820;13.030;2022-11-15T08:50:15;62.95;;;33.05;;
21315;SDS011;10817;55.820;13.030;2022-11-15T08:53:03;59.42;;;33.78;;
21315;SDS011;10817;55.820;13.030;2022-11-15T08:55:50;64.97;;;32.97;;
21315;SDS011;10817;55.820;13.030;2022-11-15T08:58:36;59.70;;;34.22;;
21315;SDS011;10817;55.820;13.030;2022-11-15T09:01:23;61.38;;;33.72;;
21315;SDS011;10817;55.820;13.030;2022-11-15T09:04:08;66.88;;;33.97;;
21315;SDS011;10817;55.820;13.030;2022-11-15T09:06:54;65.32;;;35.03;;
21315;SDS011;10817;55.820;13.030;2022-11-15T09:09:40;63.53;;;34.90;;
21315;SDS011;10817;55.820;13.030;2022-11-15T09:12:25;65.80;;;33.80;;
21315;SDS011;10817;55.820;13.030;2022-11-15T09:15:12;60.13;;;34.65;;
21315;SDS011;10817;55.820;13.030;2022-11-15T09:17:58;66.60;;;35.88;;
21315;SDS011;10817;55.820;13.030;2022-11-15T09:20:43;65.35;;;34.85;;
21315;SDS011;10817;55.820;13.030;2022-11-15T09:23:28;63.90;;;34.95;;
21315;SDS011;10817;55.820;13.030;2022-11-15T09:26:14;62.10;;;34.65;;
21315;SDS011;10817;55.820;13.030;2022-11-15T09:29:00;59.63;;;32.95;;
21315;SDS011;10817;55.820;13.030;2022-11-15T09:31:47;63.00;;;34.50;;
21315;SDS011;10817;55.820;13.030;2022-11-15T09:34:32;61.55;;;34.03;;
21315;SDS011;10817;55.820;13.030;2022-11-15T09:37:20;63.50;;;34.20;;
21315;SDS011;10817;55.820;13.030;2022-11-15T09:40:06;64.18;;;34.38;;
21315;SDS011;10817;55.820;13.030;2022-11-15T09:43:01;57.33;;;32.20;;
21315;SDS011;10817;55.820;13.030;2022-11-15T09:45:55;58.50;;;33.42;;
21315;SDS011;10817;55.820;13.030;2022-11-15T09:49:04;58.55;;;31.80;;
21315;SDS011;10817;55.820;13.030;2022-11-15T09:51:53;66.30;;;34.25;;
21315;SDS011;10817;55.820;13.030;2022-11-15T09:54:26;61.05;;;34.25;;
21315;SDS011;10817;55.820;13.030;2022-11-15T09:57:04;61.25;;;32.50;;
21315;SDS011;10817;55.820;13.030;2022-11-15T09:59:40;66.05;;;33.40;;
21315;SDS011;10817;55.820;13.030;2022-11-15T10:02:27;58.20;;;31.98;;
21315;SDS011;10817;55.820;13.030;2022-11-15T10:05:03;59.40;;;32.17;;
21315;SDS011;10817;55.820;13.030;2022-11-15T10:07:43;57.58;;;31.90;;
21315;SDS011;10817;55.820;13.030;2022-11-15T10:10:15;57.72;;;32.15;;
21315;SDS011;10817;55.820;13.030;2022-11-15T10:12:47;61.30;;;32.30;;
21315;SDS011;10817;55.820;13.030;2022-11-15T10:15:18;53.83;;;30.20;;
21315;SDS011;10817;55.820;13.030;2022-11-15T10:18:05;57.53;;;30.65;;
21315;SDS011;10817;55.820;13.030;2022-11-15T10:20:41;56.63;;;30.95;;
21315;SDS011;10817;55.820;13.030;2022-11-15T10:23:13;52.42;;;30.88;;
21315;SDS011;10817;55.820;13.030;2022-11-15T10:25:41;54.53;;;30.20;;
21315;SDS011;10817;55.820;13.030;2022-11-15T10:28:10;54.13;;;29.83;;
21315;SDS011;10817;55.820;13.030;2022-11-15T10:30:41;51.42;;;29.23;;
21315;SDS011;10817;55.820;13.030;2022-11-15T10:33:13;50.47;;;28.20;;
21315;SDS011;10817;55.820;13.030;2022-11-15T10:38:56;51.30;;;28.50;;
21315;SDS011;10817;55.820;13.030;2022-11-15T10:41:31;52.70;;;28.05;;
21315;SDS011;10817;55.820;13.030;2022-11-15T10:44:07;48.22;;;27.48;;
21315;SDS011;10817;55.820;13.030;2022-11-15T10:47:03;46.13;;;26.50;;
21315;SDS011;10817;55.820;13.030;2022-11-15T10:49:53;44.13;;;25.75;;
21315;SDS011;10817;55.820;13.030;2022-11-15T10:52:23;44.63;;;25.58;;
21315;SDS011;10817;55.820;13.030;2022-11-15T10:54:50;48.42;;;26.63;;
21315;SDS011;10817;55.820;13.030;2022-11-15T10:57:21;45.70;;;25.80;;
21315;SDS011;10817;55.820;13.030;2022-11-15T10:59:51;43.20;;;24.27;;
21315;SDS011;10817;55.820;13.030;2022-11-15T11:02:30;45.20;;;25.88;;
21315;SDS011;10817;55.820;13.030;2022-11-15T11:04:59;45.65;;;26.30;;
21315;SDS011;10817;55.820;13.030;2022-11-15T11:07:29;48.78;;;25.83;;
21315;SDS011;10817;55.820;13.030;2022-11-15T11:10:02;44.67;;;25.75;;
21315;SDS011;10817;55.820;13.030;2022-11-15T11:12:34;42.38;;;24.65;;
21315;SDS011;10817;55.820;13.030;2022-11-15T11:15:05;49.75;;;25.52;;
21315;SDS011;10817;55.820;13.030;2022-11-15T11:17:43;43.95;;;24.88;;
21315;SDS011;10817;55.820;13.030;2022-11-15T11:20:25;49.25;;;26.10;;
21315;SDS011;10817;55.820;13.030;2022-11-15T11:23:09;46.65;;;26.25;;
21315;SDS011;10817;55.820;13.030;2022-11-15T11:25:48;47.30;;;27.83;;
21315;SDS011;10817;55.820;13.030;2022-11-15T11:28:23;47.50;;;27.10;;
21315;SDS011;10817;55.820;13.030;2022-11-15T11:31:00;54.22;;;28.30;;
21315;SDS011;10817;55.820;13.030;2022-11-15T11:33:38;49.10;;;27.33;;
21315;SDS011;10817;55.820;13.030;2022-11-15T11:36:13;56.22;;;29.75;;
21315;SDS011;10817;55.820;13.030;2022-11-15T11:38:55;54.38;;;30.08;;
21315;SDS011;10817;55.820;13.030;2022-11-15T11:41:38;58.80;;;29.33;;
21315;SDS011;10817;55.820;13.030;2022-11-15T11:44:23;63.08;;;31.08;;
21315;SDS011;10817;55.820;13.030;2022-11-15T11:46:58;61.80;;;29.95;;
21315;SDS011;10817;55.820;13.030;2022-11-15T11:49:29;56.20;;;29.17;;
21315;SDS011;10817;55.820;13.030;2022-11-15T11:52:02;59.28;;;30.38;;
21315;SDS011;10817;55.820;13.030;2022-11-15T11:54:40;62.22;;;28.92;;
21315;SDS011;10817;55.820;13.030;2022-11-15T11:57:15;61.97;;;31.02;;
21315;SDS011;10817;55.820;13.030;2022-11-15T11:59:50;59.08;;;30.38;;
21315;SDS011;10817;55.820;13.030;2022-11-15T12:02:25;60.47;;;32.45;;
21315;SDS011;10817;55.820;13.030;2022-11-15T12:04:57;63.75;;;32.85;;
21315;SDS011;10817;55.820;13.030;2022-11-15T12:07:30;62.00;;;33.78;;
21315;SDS011;10817;55.820;13.030;2022-11-15T12:10:01;62.08;;;31.23;;
21315;SDS011;10817;55.820;13.030;2022-11-15T12:12:34;71.53;;;32.78;;
21315;SDS011;10817;55.820;13.030;2022-11-15T12:15:10;62.75;;;34.05;;
21315;SDS011;10817;55.820;13.030;2022-11-15T12:17:41;61.38;;;33.50;;
21315;SDS011;10817;55.820;13.030;2022-11-15T12:20:14;62.60;;;32.30;;
21315;SDS011;10817;55.820;13.030;2022-11-15T12:22:43;64.15;;;31.58;;
21315;SDS011;10817;55.820;13.030;2022-11-15T12:25:16;56.97;;;28.38;;
21315;SDS011;10817;55.820;13.030;2022-11-15T12:27:48;49.40;;;27.08;;
21315;SDS011;10817;55.820;13.030;2022-11-15T12:30:20;49.53;;;25.65;;
21315;SDS011;10817;55.820;13.030;2022-11-15T12:32:49;46.83;;;25.02;;
21315;SDS011;10817;55.820;13.030;2022-11-15T12:35:31;46.92;;;23.90;;
21315;SDS011;10817;55.820;13.030;2022-11-15T12:38:03;41.17;;;22.30;;
21315;SDS011;10817;55.820;13.030;2022-11-15T12:40:36;46.72;;;23.45;;
21315;SDS011;10817;55.820;13.030;2022-11-15T12:43:10;44.97;;;23.00;;
21315;SDS011;10817;55.820;13.030;2022-11-15T12:46:03;46.28;;;25.08;;
21315;SDS011;10817;55.820;13.030;2022-11-15T12:57:25;45.85;;;23.70;;
21315;SDS011;10817;55.820;13.030;2022-11-15T13:03:19;40.45;;;23.13;;
21315;SDS011;10817;55.820;13.030;2022-11-15T13:08:36;38.28;;;21.17;;
21315;SDS011;10817;55.820;13.030;2022-11-15T13:17:23;42.70;;;22.25;;
21315;SDS011;10817;55.820;13.030;2022-11-15T13:22:53;36.05;;;21.02;;
21315;SDS011;10817;55.820;13.030;2022-11-15T13:28:30;36.83;;;21.15;;
21315;SDS011;10817;55.820;13.030;2022-11-15T13:31:00;36.15;;;21.15;;
21315;SDS011;10817;55.820;13.030;2022-11-15T13:33:30;33.65;;;20.40;;
21315;SDS011;10817;55.820;13.030;2022-11-15T13:35:59;40.20;;;22.08;;
21315;SDS011;10817;55.820;13.030;2022-11-15T13:38:28;35.13;;;20.25;;
21315;SDS011;10817;55.820;13.030;2022-11-15T13:40:56;35.45;;;20.48;;
21315;SDS011;10817;55.820;13.030;2022-11-15T13:43:28;35.88;;;19.52;;
21315;SDS011;10817;55.820;13.030;2022-11-15T13:46:07;32.97;;;18.75;;
21315;SDS011;10817;55.820;13.030;2022-11-15T13:48:38;32.00;;;18.77;;
21315;SDS011;10817;55.820;13.030;2022-11-15T13:51:07;28.40;;;17.05;;
21315;SDS011;10817;55.820;13.030;2022-11-15T13:53:40;30.52;;;17.77;;
21315;SDS011;10817;55.820;13.030;2022-11-15T13:56:11;33.92;;;19.60;;
21315;SDS011;10817;55.820;13.030;2022-11-15T13:58:38;31.23;;;18.50;;
21315;SDS011;10817;55.820;13.030;2022-11-15T14:01:11;36.22;;;19.75;;
21315;SDS011;10817;55.820;13.030;2022-11-15T14:03:42;34.13;;;19.85;;
21315;SDS011;10817;55.820;13.030;2022-11-15T14:06:15;31.35;;;18.48;;
21315;SDS011;10817;55.820;13.030;2022-11-15T14:08:57;29.13;;;18.00;;
21315;SDS011;10817;55.820;13.030;2022-11-15T14:11:49;32.58;;;19.15;;
21315;SDS011;10817;55.820;13.030;2022-11-15T14:14:17;29.25;;;18.33;;
21315;SDS011;10817;55.820;13.030;2022-11-15T14:16:49;30.90;;;18.38;;
21315;SDS011;10817;55.820;13.030;2022-11-15T14:19:34;29.50;;;18.98;;
21315;SDS011;10817;55.820;13.030;2022-11-15T14:22:09;31.10;;;18.50;;
21315;SDS011;10817;55.820;13.030;2022-11-15T14:24:47;28.98;;;18.52;;
21315;SDS011;10817;55.820;13.030;2022-11-15T14:27:29;31.50;;;19.15;;
21315;SDS011;10817;55.820;13.030;2022-11-15T14:29:57;29.60;;;18.25;;
21315;SDS011;10817;55.820;13.030;2022-11-15T14:32:26;29.45;;;17.70;;
21315;SDS011;10817;55.820;13.030;2022-11-15T14:34:54;27.30;;;15.98;;
21315;SDS011;10817;55.820;13.030;2022-11-15T14:37:23;24.55;;;16.13;;
21315;SDS011;10817;55.820;13.030;2022-11-15T14:39:52;24.13;;;15.82;;
21315;SDS011;10817;55.820;13.030;2022-11-15T14:42:21;23.42;;;15.45;;
21315;SDS011;10817;55.820;13.030;2022-11-15T14:44:49;24.52;;;15.25;;
21315;SDS011;10817;55.820;13.030;2022-11-15T14:47:17;24.95;;;14.88;;
21315;SDS011;10817;55.820;13.030;2022-11-15T14:49:46;24.90;;;15.50;;
21315;SDS011;10817;55.820;13.030;2022-11-15T14:52:19;23.65;;;14.70;;
21315;SDS011;10817;55.820;13.030;2022-11-15T14:54:52;23.00;;;14.45;;
21315;SDS011;10817;55.820;13.030;2022-11-15T14:57:19;24.48;;;15.07;;
21315;SDS011;10817;55.820;13.030;2022-11-15T14:59:47;29.20;;;17.33;;
21315;SDS011;10817;55.820;13.030;2022-11-15T15:02:15;26.58;;;15.48;;
21315;SDS011;10817;55.820;13.030;2022-11-15T15:04:45;25.45;;;16.08;;
21315;SDS011;10817;55.820;13.030;2022-11-15T15:07:13;28.50;;;17.27;;
21315;SDS011;10817;55.820;13.030;2022-11-15T15:09:40;27.17;;;17.35;;
21315;SDS011;10817;55.820;13.030;2022-11-15T15:12:13;25.00;;;16.63;;
21315;SDS011;10817;55.820;13.030;2022-11-15T15:14:42;26.90;;;16.83;;
21315;SDS011;10817;55.820;13.030;2022-11-15T15:17:09;27.73;;;16.45;;
21315;SDS011;10817;55.820;13.030;2022-11-15T15:19:36;26.80;;;16.67;;
21315;SDS011;10817;55.820;13.030;2022-11-15T15:22:05;26.67;;;16.02;;
21315;SDS011;10817;55.820;13.030;2022-11-15T15:24:32;26.02;;;16.13;;
21315;SDS011;10817;55.820;13.030;2022-11-15T15:26:59;23.98;;;15.13;;
21315;SDS011;10817;55.820;13.030;2022-11-15T15:29:25;25.88;;;15.77;;
21315;SDS011;10817;55.820;13.030;2022-11-15T15:31:52;28.95;;;15.52;;
21315;SDS011;10817;55.820;13.030;2022-11-15T15:34:19;26.60;;;16.70;;
21315;SDS011;10817;55.820;13.030;2022-11-15T15:36:46;25.05;;;15.82;;
21315;SDS011;10817;55.820;13.030;2022-11-15T15:39:14;26.52;;;16.88;;
21315;SDS011;10817;55.820;13.030;2022-11-15T15:41:41;30.42;;;17.75;;
21315;SDS011;10817;55.820;13.030;2022-11-15T15:44:08;28.35;;;17.75;;
21315;SDS011;10817;55.820;13.030;2022-11-15T15:46:35;28.85;;;18.02;;
21315;SDS011;10817;55.820;13.030;2022-11-15T15:49:01;28.70;;;17.13;;
21315;SDS011;10817;55.820;13.030;2022-11-15T15:51:28;27.88;;;16.83;;
21315;SDS011;10817;55.820;13.030;2022-11-15T15:53:55;25.30;;;15.98;;
21315;SDS011;10817;55.820;13.030;2022-11-15T15:56:24;26.05;;;15.82;;
21315;SDS011;10817;55.820;13.030;2022-11-15T15:58:53;26.02;;;16.33;;
21315;SDS011;10817;55.820;13.030;2022-11-15T16:01:20;30.02;;;16.50;;
21315;SDS011;10817;55.820;13.030;2022-11-15T16:03:47;24.20;;;14.90;;